KAXX

Details ICAO KAXX
Name ANGEL FIRE
Region United States
Timezone America/Denver (UTC-7.0)
Plans Departing 7
Arriving 11
Stats Elevation 8,380 ft / 2,554 m (AMSL)
Location 36.422000° -105.289905°
Runways 1
Magnetic Variation 8.069° E
Sunrise 2017-12-16 14:07:49 UTC / 2017-12-16 07:07:49 Local
Sunset 2017-12-16 23:48:49 UTC / 2017-12-16 16:48:49 Local
Advertisement - Login to hide

Runways

ID Width Length Bearing (true) Bearing (mag) Surface Threshold Offset Overrun Length
17 100 ft / 30 m 8,918 ft / 2,718 m 181.75° 173.68° Asphalt 0 ft / 0 m 0 ft / 0 m
35 100 ft / 30 m 8,918 ft / 2,718 m 1.74° 353.67° Asphalt 0 ft / 0 m 0 ft / 0 m

Map

Weather


0- 5 10 15 20 25 30 35+ Temperature / ° C

Clouds and Precipitation
Forecast for 2017-12-17 06:00 UTC. Updated an hour ago

Ground ~20,000 ft ~40,000 ft Winds

METAR

KAXX 170435Z AUTO 00000KT 10SM CLR M10/M15 A2987 RMK AO2 T11031151

TAF

Not found

Frequencies

Recorded 118.02 MHz AWOS 3
Approach 132.80 MHz ALBUQUERQUE CNTR
Unicom 122.80 MHz CTAF/UNICOM
Warning: Do not use this data for real-world aviation or navigation. No guarantee of current accuracy is given.